createdAt,value
2023-01-26T00:01:40.940Z,65.83
2023-01-26T00:04:43.203Z,63.77
2023-01-26T00:07:45.656Z,65.71
2023-01-26T00:10:50.663Z,65.16
2023-01-26T00:13:53.082Z,65.42
2023-01-26T00:16:55.037Z,65.43
2023-01-26T00:19:57.404Z,66.17
2023-01-26T00:22:59.399Z,66.29
2023-01-26T00:26:01.456Z,66.56
2023-01-26T00:29:03.338Z,64.64
2023-01-26T00:32:05.577Z,64.40
2023-01-26T00:35:07.686Z,64.22
2023-01-26T00:38:09.597Z,63.74
2023-01-26T00:41:31.394Z,64.40
2023-01-26T00:44:33.302Z,63.57
2023-01-26T00:47:35.366Z,64.91
2023-01-26T00:50:37.270Z,63.15
2023-01-26T00:53:39.204Z,62.47
2023-01-26T00:56:41.184Z,62.42
2023-01-26T00:59:43.111Z,61.68
2023-01-26T01:02:45.000Z,59.10
2023-01-26T01:05:46.882Z,60.78
2023-01-26T01:08:48.888Z,61.45
2023-01-26T01:11:51.023Z,62.92
2023-01-26T01:14:52.996Z,62.35
2023-01-26T01:17:54.890Z,59.08
2023-01-26T01:20:57.002Z,58.18
2023-01-26T01:23:59.429Z,61.24
2023-01-26T01:27:01.759Z,61.09
2023-01-26T01:30:07.906Z,62.66
2023-01-26T01:33:09.948Z,61.94
2023-01-26T01:36:13.163Z,60.28
2023-01-26T01:42:16.688Z,61.40
2023-01-26T01:45:24.706Z,58.58
2023-01-26T01:48:43.077Z,57.61
2023-01-26T01:51:45.718Z,55.00
2023-01-26T01:54:56.980Z,55.27
2023-01-26T01:58:00.318Z,55.72
2023-01-26T02:01:02.379Z,55.36
2023-01-26T02:04:04.799Z,58.56
2023-01-26T02:07:06.722Z,58.31
2023-01-26T02:10:20.962Z,57.14
2023-01-26T02:13:22.978Z,59.84
2023-01-26T02:16:24.953Z,60.59
2023-01-26T02:19:26.777Z,60.02
2023-01-26T02:22:48.984Z,61.03
2023-01-26T02:25:52.776Z,60.01
2023-01-26T02:28:54.726Z,58.63
2023-01-26T02:31:56.615Z,55.30
2023-01-26T02:34:58.605Z,56.96
2023-01-26T02:38:00.536Z,59.75
2023-01-26T02:41:09.652Z,60.11
2023-01-26T02:44:12.559Z,57.96
2023-01-26T02:47:15.681Z,55.45
2023-01-26T02:50:17.627Z,56.17
2023-01-26T02:53:19.574Z,58.21
2023-01-26T02:56:21.400Z,60.84
2023-01-26T02:59:23.249Z,61.12
2023-01-26T03:02:25.208Z,59.59
2023-01-26T03:05:27.344Z,57.79
2023-01-26T03:08:29.217Z,59.85
2023-01-26T03:11:42.133Z,61.52
2023-01-26T03:14:44.030Z,60.61
2023-01-26T03:17:45.979Z,62.16
2023-01-26T03:21:06.607Z,61.76
2023-01-26T03:24:29.276Z,58.33
2023-01-26T03:27:33.637Z,57.63
2023-01-26T03:30:35.701Z,59.61
2023-01-26T03:33:37.572Z,62.64
2023-01-26T03:36:39.525Z,63.14
2023-01-26T03:39:59.961Z,62.20
2023-01-26T03:43:25.846Z,62.75
2023-01-26T03:46:46.156Z,62.36
2023-01-26T03:50:06.765Z,62.57
2023-01-26T03:53:33.789Z,62.03
2023-01-26T03:56:35.728Z,61.57
2023-01-26T03:59:40.631Z,62.41
2023-01-26T04:03:00.893Z,61.40
2023-01-26T04:06:21.172Z,61.48
2023-01-26T04:09:23.184Z,61.62
2023-01-26T04:12:25.009Z,62.42
2023-01-26T04:15:45.519Z,63.75
2023-01-26T04:19:06.542Z,63.37
2023-01-26T04:22:08.698Z,61.77
2023-01-26T04:25:17.864Z,60.82
2023-01-26T04:28:19.742Z,60.95
2023-01-26T04:31:21.661Z,58.43
2023-01-26T04:34:23.696Z,57.37
2023-01-26T04:37:25.548Z,59.15
2023-01-26T04:40:27.557Z,61.61
2023-01-26T04:43:29.852Z,59.34
2023-01-26T04:46:33.331Z,58.94
2023-01-26T04:49:35.178Z,62.37
2023-01-26T04:52:37.100Z,61.82
2023-01-26T04:55:38.909Z,60.79
2023-01-26T04:58:40.759Z,60.95
2023-01-26T05:01:42.864Z,60.80
2023-01-26T05:04:44.847Z,60.91
2023-01-26T05:07:50.350Z,61.98
2023-01-26T05:10:52.483Z,62.66
2023-01-26T05:13:54.612Z,63.52
2023-01-26T05:16:56.436Z,60.38
2023-01-26T05:19:58.324Z,62.63
2023-01-26T05:23:00.264Z,62.62
2023-01-26T05:26:02.291Z,61.60
2023-01-26T05:29:04.390Z,63.09
2023-01-26T05:32:06.399Z,62.36
2023-01-26T05:35:08.431Z,63.22
2023-01-26T05:38:10.357Z,62.05
2023-01-26T05:41:12.295Z,61.71
2023-01-26T05:44:14.296Z,62.39
2023-01-26T05:47:16.255Z,61.89
2023-01-26T05:50:18.357Z,61.46
2023-01-26T05:53:20.286Z,61.56
2023-01-26T05:56:22.410Z,59.17
2023-01-26T05:59:24.354Z,60.03
2023-01-26T06:02:29.264Z,59.29
2023-01-26T06:05:31.252Z,57.18
2023-01-26T06:08:33.167Z,58.53
2023-01-26T06:11:35.391Z,58.05
2023-01-26T06:14:37.238Z,59.67
2023-01-26T06:17:39.453Z,59.34
2023-01-26T06:20:43.433Z,59.71
2023-01-26T06:23:46.289Z,59.97
2023-01-26T06:26:49.347Z,60.63
2023-01-26T06:29:51.306Z,59.98
2023-01-26T06:32:53.627Z,57.75
2023-01-26T06:35:56.003Z,57.61
2023-01-26T06:39:00.624Z,56.69
2023-01-26T06:42:02.663Z,57.92
2023-01-26T06:45:04.777Z,58.69
2023-01-26T06:48:06.675Z,54.36
2023-01-26T06:51:21.013Z,55.58
2023-01-26T06:54:23.438Z,57.93
2023-01-26T06:57:25.286Z,57.54
2023-01-26T07:00:27.316Z,57.92
2023-01-26T07:03:29.477Z,56.16
2023-01-26T07:06:31.721Z,55.29
2023-01-26T07:09:33.699Z,54.83
2023-01-26T07:12:39.497Z,55.91
2023-01-26T07:15:41.534Z,55.16
2023-01-26T07:18:45.049Z,54.17
2023-01-26T07:21:48.837Z,56.26
2023-01-26T07:24:51.025Z,54.88
2023-01-26T07:27:57.570Z,54.48
2023-01-26T07:31:00.187Z,58.20
2023-01-26T07:34:02.157Z,59.25
2023-01-26T07:37:05.393Z,57.00
2023-01-26T07:40:15.209Z,55.19
2023-01-26T07:43:17.256Z,54.10
2023-01-26T07:46:19.499Z,55.43
2023-01-26T07:49:21.840Z,56.25
2023-01-26T07:52:26.197Z,59.48
2023-01-26T07:55:28.321Z,58.85
2023-01-26T07:58:30.189Z,57.03
2023-01-26T08:01:32.560Z,56.98
2023-01-26T08:04:34.688Z,57.38
2023-01-26T08:07:36.685Z,55.29
2023-01-26T08:10:38.715Z,55.18
2023-01-26T08:13:40.752Z,56.23
2023-01-26T08:16:42.926Z,58.72
2023-01-26T08:19:46.983Z,58.09
2023-01-26T08:22:48.993Z,56.60
2023-01-26T08:25:51.032Z,52.99
2023-01-26T08:28:53.084Z,52.84
2023-01-26T08:31:55.361Z,55.19
2023-01-26T08:34:57.378Z,53.83
2023-01-26T08:37:59.416Z,55.34
2023-01-26T08:41:01.647Z,55.68
2023-01-26T08:44:03.883Z,55.89
2023-01-26T08:47:06.018Z,55.01
2023-01-26T08:50:08.427Z,53.18
2023-01-26T08:53:10.301Z,51.94
2023-01-26T08:56:13.893Z,55.36
2023-01-26T08:59:15.929Z,55.64
2023-01-26T09:02:18.080Z,51.94
2023-01-26T09:05:20.328Z,54.70
2023-01-26T09:08:22.256Z,52.76
2023-01-26T09:11:24.318Z,54.73
2023-01-26T09:14:27.485Z,54.93
2023-01-26T09:17:29.367Z,56.68
2023-01-26T09:20:31.244Z,55.27
2023-01-26T09:23:33.672Z,54.99
2023-01-26T09:26:35.619Z,55.36
2023-01-26T09:29:37.773Z,53.65
2023-01-26T09:32:39.640Z,52.63
2023-01-26T09:35:41.495Z,55.61
2023-01-26T09:38:43.653Z,54.69
2023-01-26T09:41:45.942Z,54.19
2023-01-26T09:44:51.087Z,53.63
2023-01-26T09:47:53.268Z,56.65
2023-01-26T09:51:00.962Z,55.45
2023-01-26T09:54:09.672Z,57.43
2023-01-26T09:57:19.700Z,55.61
2023-01-26T10:00:23.213Z,57.13
2023-01-26T10:03:31.474Z,57.63
2023-01-26T10:06:33.702Z,58.24
2023-01-26T10:09:35.842Z,58.59
2023-01-26T10:12:37.872Z,54.93
2023-01-26T10:15:40.235Z,55.39
2023-01-26T10:18:51.353Z,54.41
2023-01-26T10:21:53.429Z,53.73
2023-01-26T10:24:55.541Z,56.66
2023-01-26T10:27:57.600Z,54.97
2023-01-26T10:30:59.666Z,56.06
2023-01-26T10:34:14.927Z,55.46
2023-01-26T10:37:20.769Z,52.37
2023-01-26T10:40:22.904Z,57.25
2023-01-26T10:43:24.867Z,57.02
2023-01-26T10:46:45.016Z,56.94
2023-01-26T10:49:47.211Z,55.93
2023-01-26T10:52:58.836Z,55.28
2023-01-26T10:56:05.061Z,55.78
2023-01-26T10:59:07.068Z,57.46
2023-01-26T11:02:15.709Z,53.06
2023-01-26T11:05:24.875Z,53.23
2023-01-26T11:08:37.152Z,55.04
2023-01-26T11:11:39.509Z,51.61
2023-01-26T11:14:41.462Z,53.95
2023-01-26T11:17:52.396Z,55.33
2023-01-26T11:20:57.540Z,55.64
2023-01-26T11:23:59.757Z,51.69
2023-01-26T11:27:20.270Z,54.24
2023-01-26T11:30:31.610Z,52.22
2023-01-26T11:33:43.834Z,55.57
2023-01-26T11:37:04.722Z,53.52
2023-01-26T11:40:11.245Z,51.22
2023-01-26T11:43:13.861Z,53.87
2023-01-26T11:46:19.016Z,58.42
2023-01-26T11:49:36.415Z,56.67
2023-01-26T11:52:58.232Z,56.38
2023-01-26T11:56:18.919Z,54.54
2023-01-26T11:59:37.002Z,58.63
2023-01-26T12:02:39.089Z,58.50
2023-01-26T12:05:42.527Z,57.16
2023-01-26T12:08:47.241Z,57.38
2023-01-26T12:12:05.728Z,53.01
2023-01-26T12:15:12.783Z,53.39
2023-01-26T12:18:17.715Z,56.99
2023-01-26T12:21:19.954Z,56.82
2023-01-26T12:25:04.786Z,57.80
2023-01-26T12:28:12.159Z,55.73
2023-01-26T12:31:17.175Z,60.47
2023-01-26T12:34:19.343Z,57.48
2023-01-26T12:37:27.855Z,58.15
2023-01-26T12:40:56.215Z,59.12
2023-01-26T12:44:16.326Z,58.37
2023-01-26T12:47:20.533Z,57.72
2023-01-26T12:50:35.845Z,56.17
2023-01-26T12:53:41.077Z,54.69
2023-01-26T12:56:44.373Z,53.74
2023-01-26T12:59:48.860Z,56.25
2023-01-26T13:02:56.296Z,56.45
2023-01-26T13:06:00.076Z,58.51
2023-01-26T13:09:22.787Z,58.51
2023-01-26T13:12:43.894Z,60.02
2023-01-26T13:15:46.481Z,60.05
2023-01-26T13:18:53.456Z,58.97
2023-01-26T13:33:22.821Z,62.30
2023-01-26T13:40:04.257Z,60.22
2023-01-26T13:43:27.169Z,58.84
2023-01-26T13:46:55.809Z,60.22
2023-01-26T13:49:59.183Z,57.99
2023-01-26T13:53:12.425Z,57.95
2023-01-26T13:56:24.852Z,62.53
2023-01-26T13:59:27.206Z,62.80
2023-01-26T14:02:33.931Z,61.33
2023-01-26T14:05:36.717Z,57.80
2023-01-26T14:08:38.648Z,58.18
2023-01-26T14:11:40.713Z,58.89
2023-01-26T14:14:42.981Z,61.26
2023-01-26T14:17:52.239Z,63.21
2023-01-26T14:20:59.903Z,58.82
2023-01-26T14:24:01.916Z,60.06
2023-01-26T14:27:04.017Z,62.29
2023-01-26T14:30:24.995Z,58.87
2023-01-26T14:33:27.068Z,57.49
2023-01-26T14:36:37.187Z,58.34
2023-01-26T14:39:39.261Z,59.81
2023-01-26T14:42:41.197Z,59.80
2023-01-26T14:45:51.809Z,59.67
2023-01-26T14:48:56.620Z,58.89
2023-01-26T14:51:58.655Z,60.08
2023-01-26T14:55:19.293Z,59.69
2023-01-26T14:58:25.791Z,58.59
2023-01-26T15:01:28.165Z,58.38
2023-01-26T15:04:37.313Z,60.27
2023-01-26T15:07:58.489Z,57.81
2023-01-26T15:11:19.708Z,56.58
2023-01-26T15:14:24.702Z,58.97
2023-01-26T15:17:40.241Z,58.54
2023-01-26T15:21:00.773Z,60.21
2023-01-26T15:24:03.251Z,59.13
2023-01-26T15:27:06.137Z,57.29
2023-01-26T15:30:15.771Z,56.96
2023-01-26T15:33:37.831Z,57.81
2023-01-26T15:36:48.716Z,55.56
2023-01-26T15:39:51.179Z,53.88
2023-01-26T15:43:05.363Z,52.44
2023-01-26T15:46:08.313Z,52.23
2023-01-26T15:49:10.655Z,53.62
2023-01-26T15:52:13.848Z,51.49
2023-01-26T15:55:20.582Z,55.69
2023-01-26T15:58:23.068Z,53.24
2023-01-26T16:01:25.007Z,52.89
2023-01-26T16:04:28.284Z,54.99
2023-01-26T16:07:30.432Z,53.24
2023-01-26T16:10:32.579Z,54.83
2023-01-26T16:13:34.416Z,55.38
2023-01-26T16:16:36.613Z,53.08
2023-01-26T16:19:38.568Z,52.58
2023-01-26T16:22:41.031Z,57.87
2023-01-26T16:25:43.048Z,54.83
2023-01-26T16:28:45.829Z,54.49
2023-01-26T16:31:47.710Z,53.62
2023-01-26T16:34:49.591Z,51.04
2023-01-26T16:37:51.646Z,50.69
2023-01-26T16:40:53.679Z,51.87
2023-01-26T16:43:56.115Z,54.00
2023-01-26T16:46:58.170Z,53.03
2023-01-26T16:50:00.260Z,53.88
2023-01-26T16:53:02.924Z,54.16
2023-01-26T16:56:06.353Z,54.18
2023-01-26T16:59:08.373Z,52.28
2023-01-26T17:02:26.748Z,53.29
2023-01-26T17:05:31.208Z,54.39
2023-01-26T17:08:33.215Z,53.91
2023-01-26T17:11:35.081Z,53.30
2023-01-26T17:14:37.212Z,48.93
2023-01-26T17:17:39.245Z,50.52
2023-01-26T17:20:42.082Z,51.09
2023-01-26T17:23:46.820Z,51.64
2023-01-26T17:26:48.997Z,50.97
2023-01-26T17:29:50.931Z,51.55
2023-01-26T17:32:52.816Z,51.88
2023-01-26T17:36:01.334Z,52.02
2023-01-26T17:39:03.338Z,51.07
2023-01-26T17:42:05.583Z,49.15
2023-01-26T17:45:10.034Z,50.82
2023-01-26T17:48:12.171Z,51.94
2023-01-26T17:51:16.586Z,49.88
2023-01-26T17:54:18.504Z,49.43
2023-01-26T17:57:20.570Z,52.13
2023-01-26T18:00:22.562Z,53.28
2023-01-26T18:03:26.664Z,52.83
2023-01-26T18:06:29.089Z,53.30
2023-01-26T18:09:31.453Z,50.56
2023-01-26T18:12:33.446Z,51.50
2023-01-26T18:15:38.251Z,51.42
2023-01-26T18:18:40.169Z,49.95
2023-01-26T18:21:42.507Z,52.94
2023-01-26T18:24:44.448Z,51.53
2023-01-26T18:27:46.654Z,51.90
2023-01-26T18:30:48.682Z,51.81
2023-01-26T18:33:51.032Z,49.30
2023-01-26T18:36:53.009Z,50.23
2023-01-26T18:39:55.002Z,48.01
2023-01-26T18:42:56.956Z,47.12
2023-01-26T18:46:02.879Z,46.98
2023-01-26T18:49:04.949Z,47.95
2023-01-26T18:52:06.924Z,50.71
2023-01-26T18:55:09.703Z,50.66
2023-01-26T18:58:11.860Z,49.78
2023-01-26T19:01:14.759Z,48.28
2023-01-26T19:04:18.346Z,47.98
2023-01-26T19:07:20.668Z,48.15
2023-01-26T19:10:22.938Z,50.46
2023-01-26T19:13:24.767Z,51.59
2023-01-26T19:16:26.876Z,51.48
2023-01-26T19:19:29.512Z,49.36
2023-01-26T19:22:31.458Z,49.03
2023-01-26T19:25:35.658Z,49.23
2023-01-26T19:28:41.080Z,49.31
2023-01-26T19:31:43.718Z,50.33
2023-01-26T19:34:45.748Z,48.42
2023-01-26T19:37:47.797Z,49.79
2023-01-26T19:40:50.517Z,49.73
2023-01-26T19:43:52.539Z,50.36
2023-01-26T19:46:55.827Z,49.11
2023-01-26T19:49:57.682Z,47.05
2023-01-26T19:52:59.721Z,49.09
2023-01-26T19:56:06.027Z,50.04
2023-01-26T19:59:10.251Z,48.90
2023-01-26T20:02:12.428Z,49.25
2023-01-26T20:05:14.492Z,51.34
2023-01-26T20:08:16.753Z,52.45
2023-01-26T20:11:19.826Z,51.42
2023-01-26T20:14:21.897Z,52.59
2023-01-26T20:17:23.784Z,52.59
2023-01-26T20:20:25.791Z,50.81
2023-01-26T20:23:27.638Z,52.28
2023-01-26T20:26:29.610Z,52.18
2023-01-26T20:29:32.234Z,51.67
2023-01-26T20:32:34.818Z,52.71
2023-01-26T20:35:38.807Z,55.70
2023-01-26T20:38:40.970Z,53.46
2023-01-26T20:41:42.994Z,54.80
2023-01-26T20:44:45.178Z,54.49
2023-01-26T20:47:47.325Z,53.29
2023-01-26T20:50:49.270Z,52.51
2023-01-26T20:53:51.146Z,52.47
2023-01-26T20:56:53.149Z,51.69
2023-01-26T20:59:55.426Z,52.99
2023-01-26T21:02:57.274Z,52.04
2023-01-26T21:05:59.316Z,50.34
2023-01-26T21:09:01.352Z,50.82
2023-01-26T21:12:03.324Z,49.76
2023-01-26T21:15:06.585Z,50.47
2023-01-26T21:18:08.452Z,50.64
2023-01-26T21:21:10.979Z,50.96
2023-01-26T21:24:12.939Z,51.54
2023-01-26T21:27:14.916Z,51.13
2023-01-26T21:30:17.086Z,49.81
2023-01-26T21:33:19.016Z,53.00
2023-01-26T21:36:24.893Z,54.21
2023-01-26T21:39:26.859Z,52.59
2023-01-26T21:42:28.680Z,53.03
2023-01-26T21:45:49.095Z,52.82
2023-01-26T21:48:51.034Z,56.08
2023-01-26T21:52:11.727Z,54.03
2023-01-26T21:55:13.728Z,51.97
2023-01-26T21:58:34.470Z,53.01
2023-01-26T22:01:37.773Z,52.22
2023-01-26T22:04:39.674Z,52.57
2023-01-26T22:07:41.599Z,52.25
2023-01-26T22:10:43.596Z,51.90
2023-01-26T22:13:45.932Z,52.11
2023-01-26T22:16:47.930Z,52.91
2023-01-26T22:19:50.046Z,53.50
2023-01-26T22:22:51.855Z,53.35
2023-01-26T22:25:53.853Z,52.68
2023-01-26T22:28:56.604Z,52.17
2023-01-26T22:31:58.665Z,51.16
2023-01-26T22:35:00.676Z,49.69
2023-01-26T22:38:02.598Z,49.21
2023-01-26T22:41:05.624Z,51.71
2023-01-26T22:44:07.544Z,50.75
2023-01-26T22:47:09.623Z,49.56
2023-01-26T22:50:11.978Z,49.33
2023-01-26T22:53:14.244Z,49.64
2023-01-26T22:56:16.729Z,49.59
2023-01-26T22:59:18.664Z,50.52
2023-01-26T23:02:21.185Z,50.91
2023-01-26T23:05:23.282Z,52.29
2023-01-26T23:08:25.210Z,52.71
2023-01-26T23:11:28.043Z,53.75
2023-01-26T23:14:30.313Z,53.94
2023-01-26T23:17:32.181Z,52.64
2023-01-26T23:20:34.043Z,53.72
2023-01-26T23:23:36.214Z,54.29
2023-01-26T23:26:38.147Z,53.26
2023-01-26T23:29:40.248Z,52.35
2023-01-26T23:32:42.302Z,49.98
2023-01-26T23:35:44.346Z,50.79
2023-01-26T23:38:46.269Z,53.40
2023-01-26T23:41:48.098Z,52.94
2023-01-26T23:44:49.970Z,52.19
2023-01-26T23:47:51.965Z,53.03
2023-01-26T23:51:00.865Z,54.24
2023-01-26T23:54:02.824Z,53.36
2023-01-26T23:57:04.916Z,54.52
